sensor_id;sensor_type;location;lat;lon;timestamp;temperature;humidity
13436;DHT22;6790;49.520;8.504;2023-04-03T00:01:15;1.80;99.90
13436;DHT22;6790;49.520;8.504;2023-04-03T00:03:41;1.70;99.90
13436;DHT22;6790;49.520;8.504;2023-04-03T00:06:08;1.70;99.90
13436;DHT22;6790;49.520;8.504;2023-04-03T00:08:36;1.70;99.90
13436;DHT22;6790;49.520;8.504;2023-04-03T00:11:03;1.70;99.90
13436;DHT22;6790;49.520;8.504;2023-04-03T00:13:30;1.60;99.90
13436;DHT22;6790;49.520;8.504;2023-04-03T00:15:56;1.60;99.90
13436;DHT22;6790;49.520;8.504;2023-04-03T00:18:22;1.60;99.90
13436;DHT22;6790;49.520;8.504;2023-04-03T00:20:48;1.60;99.90
13436;DHT22;6790;49.520;8.504;2023-04-03T00:23:14;1.60;99.90
13436;DHT22;6790;49.520;8.504;2023-04-03T00:25:40;1.60;99.90
13436;DHT22;6790;49.520;8.504;2023-04-03T00:28:06;1.60;99.90
13436;DHT22;6790;49.520;8.504;2023-04-03T00:30:32;1.60;99.90
13436;DHT22;6790;49.520;8.504;2023-04-03T00:32:58;1.50;99.90
13436;DHT22;6790;49.520;8.504;2023-04-03T00:35:26;1.40;99.90
13436;DHT22;6790;49.520;8.504;2023-04-03T00:37:53;1.40;99.90
13436;DHT22;6790;49.520;8.504;2023-04-03T00:40:22;1.40;99.90
13436;DHT22;6790;49.520;8.504;2023-04-03T00:42:55;1.30;99.90
13436;DHT22;6790;49.520;8.504;2023-04-03T00:45:31;1.30;99.90
13436;DHT22;6790;49.520;8.504;2023-04-03T00:48:04;1.30;99.90
13436;DHT22;6790;49.520;8.504;2023-04-03T00:50:35;1.20;99.90
13436;DHT22;6790;49.520;8.504;2023-04-03T00:53:04;1.20;99.90
13436;DHT22;6790;49.520;8.504;2023-04-03T00:55:31;1.20;99.90
13436;DHT22;6790;49.520;8.504;2023-04-03T00:57:57;1.20;99.90
13436;DHT22;6790;49.520;8.504;2023-04-03T01:00:23;1.20;99.90
13436;DHT22;6790;49.520;8.504;2023-04-03T01:02:51;1.20;99.90
13436;DHT22;6790;49.520;8.504;2023-04-03T01:05:18;1.30;99.90
13436;DHT22;6790;49.520;8.504;2023-04-03T01:07:45;1.30;99.90
13436;DHT22;6790;49.520;8.504;2023-04-03T01:10:13;1.40;99.90
13436;DHT22;6790;49.520;8.504;2023-04-03T01:12:43;1.50;99.90
13436;DHT22;6790;49.520;8.504;2023-04-03T01:15:17;1.50;99.90
13436;DHT22;6790;49.520;8.504;2023-04-03T01:17:55;1.60;99.90
13436;DHT22;6790;49.520;8.504;2023-04-03T01:25:48;1.70;99.90
13436;DHT22;6790;49.520;8.504;2023-04-03T01:28:41;1.70;99.90
13436;DHT22;6790;49.520;8.504;2023-04-03T01:31:30;1.60;99.90
13436;DHT22;6790;49.520;8.504;2023-04-03T01:34:02;1.50;99.90
13436;DHT22;6790;49.520;8.504;2023-04-03T01:36:29;1.40;99.90
13436;DHT22;6790;49.520;8.504;2023-04-03T01:38:58;1.30;99.90
13436;DHT22;6790;49.520;8.504;2023-04-03T01:41:25;1.40;99.90
13436;DHT22;6790;49.520;8.504;2023-04-03T01:43:51;1.40;99.90
13436;DHT22;6790;49.520;8.504;2023-04-03T01:46:18;1.40;99.90
13436;DHT22;6790;49.520;8.504;2023-04-03T01:48:43;1.50;99.90
13436;DHT22;6790;49.520;8.504;2023-04-03T01:51:09;1.50;99.90
13436;DHT22;6790;49.520;8.504;2023-04-03T01:53:35;1.50;99.90
13436;DHT22;6790;49.520;8.504;2023-04-03T01:56:01;1.50;99.90
13436;DHT22;6790;49.520;8.504;2023-04-03T01:58:26;1.50;99.90
13436;DHT22;6790;49.520;8.504;2023-04-03T02:00:52;1.40;99.90
13436;DHT22;6790;49.520;8.504;2023-04-03T02:03:18;1.30;99.90
13436;DHT22;6790;49.520;8.504;2023-04-03T02:05:44;1.30;99.90
13436;DHT22;6790;49.520;8.504;2023-04-03T02:08:10;1.20;99.90
13436;DHT22;6790;49.520;8.504;2023-04-03T02:10:36;1.20;99.90
13436;DHT22;6790;49.520;8.504;2023-04-03T02:13:02;1.20;99.90
13436;DHT22;6790;49.520;8.504;2023-04-03T02:15:28;1.20;99.90
13436;DHT22;6790;49.520;8.504;2023-04-03T02:17:54;1.30;99.90
13436;DHT22;6790;49.520;8.504;2023-04-03T02:20:19;1.20;99.90
13436;DHT22;6790;49.520;8.504;2023-04-03T02:22:45;1.10;99.90
13436;DHT22;6790;49.520;8.504;2023-04-03T02:25:11;1.10;99.90
13436;DHT22;6790;49.520;8.504;2023-04-03T02:27:38;1.10;99.90
13436;DHT22;6790;49.520;8.504;2023-04-03T02:30:05;1.10;99.90
13436;DHT22;6790;49.520;8.504;2023-04-03T02:32:32;1.00;99.90
13436;DHT22;6790;49.520;8.504;2023-04-03T02:34:57;1.00;99.90
13436;DHT22;6790;49.520;8.504;2023-04-03T02:37:23;0.90;99.90
13436;DHT22;6790;49.520;8.504;2023-04-03T02:39:49;0.80;99.90
13436;DHT22;6790;49.520;8.504;2023-04-03T02:42:15;0.80;99.90
13436;DHT22;6790;49.520;8.504;2023-04-03T02:44:41;0.70;99.90
13436;DHT22;6790;49.520;8.504;2023-04-03T02:47:07;0.80;99.90
13436;DHT22;6790;49.520;8.504;2023-04-03T02:49:32;0.80;99.90
13436;DHT22;6790;49.520;8.504;2023-04-03T02:51:58;0.80;99.90
13436;DHT22;6790;49.520;8.504;2023-04-03T02:54:24;0.70;99.90
13436;DHT22;6790;49.520;8.504;2023-04-03T02:56:53;0.60;99.90
13436;DHT22;6790;49.520;8.504;2023-04-03T02:59:18;0.60;99.90
13436;DHT22;6790;49.520;8.504;2023-04-03T03:01:45;0.60;99.90
13436;DHT22;6790;49.520;8.504;2023-04-03T03:04:11;0.50;99.90
13436;DHT22;6790;49.520;8.504;2023-04-03T03:06:36;0.50;99.90
13436;DHT22;6790;49.520;8.504;2023-04-03T03:09:02;0.40;99.90
13436;DHT22;6790;49.520;8.504;2023-04-03T03:11:29;0.40;99.90
13436;DHT22;6790;49.520;8.504;2023-04-03T03:13:55;0.60;99.90
13436;DHT22;6790;49.520;8.504;2023-04-03T03:16:21;0.40;99.90
13436;DHT22;6790;49.520;8.504;2023-04-03T03:18:47;0.40;99.90
13436;DHT22;6790;49.520;8.504;2023-04-03T03:21:13;0.40;99.90
13436;DHT22;6790;49.520;8.504;2023-04-03T03:23:39;0.40;99.90
13436;DHT22;6790;49.520;8.504;2023-04-03T03:26:07;0.30;99.90
13436;DHT22;6790;49.520;8.504;2023-04-03T03:28:35;0.30;99.90
13436;DHT22;6790;49.520;8.504;2023-04-03T03:31:02;0.30;99.90
13436;DHT22;6790;49.520;8.504;2023-04-03T03:33:29;0.30;99.90
13436;DHT22;6790;49.520;8.504;2023-04-03T03:35:55;0.30;99.90
13436;DHT22;6790;49.520;8.504;2023-04-03T03:38:21;0.30;99.90
13436;DHT22;6790;49.520;8.504;2023-04-03T03:40:48;0.30;99.90
13436;DHT22;6790;49.520;8.504;2023-04-03T03:43:16;0.30;99.90
13436;DHT22;6790;49.520;8.504;2023-04-03T03:45:42;0.20;99.90
13436;DHT22;6790;49.520;8.504;2023-04-03T03:48:07;0.20;99.90
13436;DHT22;6790;49.520;8.504;2023-04-03T03:50:33;0.10;99.90
13436;DHT22;6790;49.520;8.504;2023-04-03T03:52:59;0.10;99.90
13436;DHT22;6790;49.520;8.504;2023-04-03T03:55:25;0.10;99.90
13436;DHT22;6790;49.520;8.504;2023-04-03T03:57:51;0.10;99.90
13436;DHT22;6790;49.520;8.504;2023-04-03T04:00:17;0.10;99.90
13436;DHT22;6790;49.520;8.504;2023-04-03T04:02:43;0.20;99.90
13436;DHT22;6790;49.520;8.504;2023-04-03T04:05:09;0.10;99.90
13436;DHT22;6790;49.520;8.504;2023-04-03T04:07:35;0.10;99.90
13436;DHT22;6790;49.520;8.504;2023-04-03T04:10:01;0.00;99.90
13436;DHT22;6790;49.520;8.504;2023-04-03T04:12:26;-0.10;99.90
13436;DHT22;6790;49.520;8.504;2023-04-03T04:14:52;-0.10;99.90
13436;DHT22;6790;49.520;8.504;2023-04-03T04:17:18;-0.10;99.90
13436;DHT22;6790;49.520;8.504;2023-04-03T04:19:43;-0.20;99.90
13436;DHT22;6790;49.520;8.504;2023-04-03T04:22:09;-0.20;99.90
13436;DHT22;6790;49.520;8.504;2023-04-03T04:24:35;-0.20;99.90
13436;DHT22;6790;49.520;8.504;2023-04-03T04:27:01;-0.20;99.90
13436;DHT22;6790;49.520;8.504;2023-04-03T04:29:27;-0.30;99.90
13436;DHT22;6790;49.520;8.504;2023-04-03T04:31:52;-0.30;99.90
13436;DHT22;6790;49.520;8.504;2023-04-03T04:34:18;-0.40;99.90
13436;DHT22;6790;49.520;8.504;2023-04-03T04:36:44;-0.40;99.90
13436;DHT22;6790;49.520;8.504;2023-04-03T04:39:09;-0.40;99.90
13436;DHT22;6790;49.520;8.504;2023-04-03T04:41:35;-0.40;99.90
13436;DHT22;6790;49.520;8.504;2023-04-03T04:44:01;-0.40;99.90
13436;DHT22;6790;49.520;8.504;2023-04-03T04:46:26;-0.40;99.90
13436;DHT22;6790;49.520;8.504;2023-04-03T04:48:52;-0.40;99.90
13436;DHT22;6790;49.520;8.504;2023-04-03T04:51:18;-0.40;99.90
13436;DHT22;6790;49.520;8.504;2023-04-03T04:53:44;-0.40;99.90
13436;DHT22;6790;49.520;8.504;2023-04-03T04:56:10;-0.40;99.90
13436;DHT22;6790;49.520;8.504;2023-04-03T04:58:36;-0.40;99.90
13436;DHT22;6790;49.520;8.504;2023-04-03T05:01:05;-0.40;99.90
13436;DHT22;6790;49.520;8.504;2023-04-03T05:03:32;-0.30;99.90
13436;DHT22;6790;49.520;8.504;2023-04-03T05:05:58;-0.40;99.90
13436;DHT22;6790;49.520;8.504;2023-04-03T05:08:24;-0.30;99.90
13436;DHT22;6790;49.520;8.504;2023-04-03T05:10:50;-0.40;99.90
13436;DHT22;6790;49.520;8.504;2023-04-03T05:13:16;-0.40;99.90
13436;DHT22;6790;49.520;8.504;2023-04-03T05:15:42;-0.40;99.90
13436;DHT22;6790;49.520;8.504;2023-04-03T05:18:08;-0.30;99.90
13436;DHT22;6790;49.520;8.504;2023-04-03T05:20:34;-0.20;99.90
13436;DHT22;6790;49.520;8.504;2023-04-03T05:23:00;-0.20;99.90
13436;DHT22;6790;49.520;8.504;2023-04-03T05:25:26;-0.10;99.90
13436;DHT22;6790;49.520;8.504;2023-04-03T05:27:51;-0.10;99.90
13436;DHT22;6790;49.520;8.504;2023-04-03T05:30:17;-0.10;99.90
13436;DHT22;6790;49.520;8.504;2023-04-03T05:32:43;-0.10;99.90
13436;DHT22;6790;49.520;8.504;2023-04-03T05:35:09;0.00;99.90
13436;DHT22;6790;49.520;8.504;2023-04-03T05:37:35;0.00;99.90
13436;DHT22;6790;49.520;8.504;2023-04-03T05:40:05;0.10;99.90
13436;DHT22;6790;49.520;8.504;2023-04-03T05:42:31;0.20;99.90
13436;DHT22;6790;49.520;8.504;2023-04-03T05:44:57;0.30;99.90
13436;DHT22;6790;49.520;8.504;2023-04-03T05:47:22;0.30;99.90
13436;DHT22;6790;49.520;8.504;2023-04-03T05:49:48;0.30;99.90
13436;DHT22;6790;49.520;8.504;2023-04-03T05:54:52;0.40;99.90
13436;DHT22;6790;49.520;8.504;2023-04-03T05:57:18;0.40;99.90
13436;DHT22;6790;49.520;8.504;2023-04-03T05:59:45;0.50;99.90
13436;DHT22;6790;49.520;8.504;2023-04-03T06:02:14;0.60;99.90
13436;DHT22;6790;49.520;8.504;2023-04-03T06:04:44;0.70;99.90
13436;DHT22;6790;49.520;8.504;2023-04-03T06:07:13;0.70;99.90
13436;DHT22;6790;49.520;8.504;2023-04-03T06:09:41;0.80;99.90
13436;DHT22;6790;49.520;8.504;2023-04-03T06:12:07;0.80;99.90
13436;DHT22;6790;49.520;8.504;2023-04-03T06:14:33;0.90;99.90
13436;DHT22;6790;49.520;8.504;2023-04-03T06:16:59;1.00;99.90
13436;DHT22;6790;49.520;8.504;2023-04-03T06:19:25;1.10;99.90
13436;DHT22;6790;49.520;8.504;2023-04-03T06:21:51;1.10;99.90
13436;DHT22;6790;49.520;8.504;2023-04-03T06:24:18;1.30;99.90
13436;DHT22;6790;49.520;8.504;2023-04-03T06:26:45;1.40;99.90
13436;DHT22;6790;49.520;8.504;2023-04-03T06:29:11;1.50;99.90
13436;DHT22;6790;49.520;8.504;2023-04-03T06:31:37;1.60;99.90
13436;DHT22;6790;49.520;8.504;2023-04-03T06:34:03;1.80;99.90
13436;DHT22;6790;49.520;8.504;2023-04-03T06:36:29;2.10;99.90
13436;DHT22;6790;49.520;8.504;2023-04-03T06:38:55;2.30;99.90
13436;DHT22;6790;49.520;8.504;2023-04-03T06:41:21;2.40;99.90
13436;DHT22;6790;49.520;8.504;2023-04-03T06:43:47;2.60;99.90
13436;DHT22;6790;49.520;8.504;2023-04-03T06:46:19;2.80;99.90
13436;DHT22;6790;49.520;8.504;2023-04-03T06:48:47;2.90;99.90
13436;DHT22;6790;49.520;8.504;2023-04-03T06:51:25;3.00;99.90
13436;DHT22;6790;49.520;8.504;2023-04-03T06:53:53;3.20;99.90
13436;DHT22;6790;49.520;8.504;2023-04-03T06:56:21;3.30;99.90
13436;DHT22;6790;49.520;8.504;2023-04-03T06:58:48;3.50;99.90
13436;DHT22;6790;49.520;8.504;2023-04-03T07:01:15;3.50;99.90
13436;DHT22;6790;49.520;8.504;2023-04-03T07:03:42;3.50;99.90
13436;DHT22;6790;49.520;8.504;2023-04-03T07:06:11;3.40;99.90
13436;DHT22;6790;49.520;8.504;2023-04-03T07:08:37;3.40;99.90
13436;DHT22;6790;49.520;8.504;2023-04-03T07:11:04;3.60;99.90
13436;DHT22;6790;49.520;8.504;2023-04-03T07:13:30;3.80;99.90
13436;DHT22;6790;49.520;8.504;2023-04-03T07:15:55;3.70;99.90
13436;DHT22;6790;49.520;8.504;2023-04-03T07:18:22;3.70;99.90
13436;DHT22;6790;49.520;8.504;2023-04-03T07:20:48;3.70;99.90
13436;DHT22;6790;49.520;8.504;2023-04-03T07:23:14;3.80;99.90
13436;DHT22;6790;49.520;8.504;2023-04-03T07:25:47;3.90;99.90
13436;DHT22;6790;49.520;8.504;2023-04-03T07:28:14;4.20;99.90
13436;DHT22;6790;49.520;8.504;2023-04-03T07:30:49;4.50;99.90
13436;DHT22;6790;49.520;8.504;2023-04-03T07:33:18;4.90;99.90
13436;DHT22;6790;49.520;8.504;2023-04-03T07:35:45;5.30;99.90
13436;DHT22;6790;49.520;8.504;2023-04-03T07:38:12;5.50;99.90
13436;DHT22;6790;49.520;8.504;2023-04-03T07:40:38;5.50;99.90
13436;DHT22;6790;49.520;8.504;2023-04-03T07:43:04;5.70;99.90
13436;DHT22;6790;49.520;8.504;2023-04-03T07:45:31;5.80;99.90
13436;DHT22;6790;49.520;8.504;2023-04-03T07:47:57;6.00;99.90
13436;DHT22;6790;49.520;8.504;2023-04-03T07:50:22;5.90;99.90
13436;DHT22;6790;49.520;8.504;2023-04-03T07:52:48;5.90;99.90
13436;DHT22;6790;49.520;8.504;2023-04-03T07:55:16;6.00;99.90
13436;DHT22;6790;49.520;8.504;2023-04-03T07:57:42;6.00;99.90
13436;DHT22;6790;49.520;8.504;2023-04-03T08:00:08;6.00;99.90
13436;DHT22;6790;49.520;8.504;2023-04-03T08:02:35;6.20;99.90
13436;DHT22;6790;49.520;8.504;2023-04-03T08:05:01;6.30;99.90
13436;DHT22;6790;49.520;8.504;2023-04-03T08:07:26;6.40;99.90
13436;DHT22;6790;49.520;8.504;2023-04-03T08:09:52;6.50;99.90
13436;DHT22;6790;49.520;8.504;2023-04-03T08:12:18;6.70;99.90
13436;DHT22;6790;49.520;8.504;2023-04-03T08:14:44;6.70;99.90
13436;DHT22;6790;49.520;8.504;2023-04-03T08:17:09;7.10;99.90
13436;DHT22;6790;49.520;8.504;2023-04-03T08:19:40;7.00;99.90
13436;DHT22;6790;49.520;8.504;2023-04-03T08:22:06;7.00;99.90
13436;DHT22;6790;49.520;8.504;2023-04-03T08:24:33;7.30;99.90
13436;DHT22;6790;49.520;8.504;2023-04-03T08:26:59;7.50;99.90
13436;DHT22;6790;49.520;8.504;2023-04-03T08:29:25;7.20;99.90
13436;DHT22;6790;49.520;8.504;2023-04-03T08:31:51;7.20;99.90
13436;DHT22;6790;49.520;8.504;2023-04-03T08:34:17;7.50;99.90
13436;DHT22;6790;49.520;8.504;2023-04-03T08:36:44;7.50;99.90
13436;DHT22;6790;49.520;8.504;2023-04-03T08:39:10;7.50;99.90
13436;DHT22;6790;49.520;8.504;2023-04-03T08:41:39;7.80;99.90
13436;DHT22;6790;49.520;8.504;2023-04-03T08:47:37;7.60;99.90
13436;DHT22;6790;49.520;8.504;2023-04-03T08:50:07;8.30;99.90
13436;DHT22;6790;49.520;8.504;2023-04-03T08:52:40;8.30;99.90
13436;DHT22;6790;49.520;8.504;2023-04-03T08:58:06;8.70;99.90
13436;DHT22;6790;49.520;8.504;2023-04-03T09:03:21;9.10;99.90
13436;DHT22;6790;49.520;8.504;2023-04-03T09:05:55;8.80;99.90
13436;DHT22;6790;49.520;8.504;2023-04-03T09:08:40;8.90;99.90
13436;DHT22;6790;49.520;8.504;2023-04-03T09:20:31;9.20;93.40
13436;DHT22;6790;49.520;8.504;2023-04-03T09:23:21;9.00;93.60
13436;DHT22;6790;49.520;8.504;2023-04-03T09:25:54;8.90;93.40
13436;DHT22;6790;49.520;8.504;2023-04-03T09:28:23;9.50;97.20
13436;DHT22;6790;49.520;8.504;2023-04-03T09:30:49;9.30;98.60
13436;DHT22;6790;49.520;8.504;2023-04-03T09:33:16;9.10;97.50
13436;DHT22;6790;49.520;8.504;2023-04-03T09:35:45;9.30;97.40
13436;DHT22;6790;49.520;8.504;2023-04-03T09:40:44;9.20;90.50
13436;DHT22;6790;49.520;8.504;2023-04-03T09:43:28;8.50;92.10
13436;DHT22;6790;49.520;8.504;2023-04-03T09:45:56;9.10;92.40
13436;DHT22;6790;49.520;8.504;2023-04-03T09:48:50;9.60;95.70
13436;DHT22;6790;49.520;8.504;2023-04-03T09:51:17;9.80;91.20
13436;DHT22;6790;49.520;8.504;2023-04-03T09:53:44;9.90;86.40
13436;DHT22;6790;49.520;8.504;2023-04-03T09:58:40;10.30;82.20
13436;DHT22;6790;49.520;8.504;2023-04-03T10:01:25;10.40;92.10
13436;DHT22;6790;49.520;8.504;2023-04-03T10:04:17;10.30;84.80
13436;DHT22;6790;49.520;8.504;2023-04-03T10:06:48;9.80;75.80
13436;DHT22;6790;49.520;8.504;2023-04-03T10:14:35;10.20;78.70
13436;DHT22;6790;49.520;8.504;2023-04-03T10:17:20;9.30;75.20
13436;DHT22;6790;49.520;8.504;2023-04-03T10:22:48;8.80;82.00
13436;DHT22;6790;49.520;8.504;2023-04-03T10:28:17;8.20;81.20
13436;DHT22;6790;49.520;8.504;2023-04-03T10:30:48;8.20;85.10
13436;DHT22;6790;49.520;8.504;2023-04-03T10:42:07;10.00;71.30
13436;DHT22;6790;49.520;8.504;2023-04-03T10:47:46;9.20;83.20
13436;DHT22;6790;49.520;8.504;2023-04-03T10:50:42;10.30;82.10
13436;DHT22;6790;49.520;8.504;2023-04-03T10:59:51;10.90;58.60
13436;DHT22;6790;49.520;8.504;2023-04-03T11:02:32;10.30;63.80
13436;DHT22;6790;49.520;8.504;2023-04-03T11:05:14;10.60;65.80
13436;DHT22;6790;49.520;8.504;2023-04-03T11:07:47;10.90;65.50
13436;DHT22;6790;49.520;8.504;2023-04-03T11:10:44;10.50;65.80
13436;DHT22;6790;49.520;8.504;2023-04-03T11:13:33;10.50;64.90
13436;DHT22;6790;49.520;8.504;2023-04-03T11:16:03;9.90;63.80
13436;DHT22;6790;49.520;8.504;2023-04-03T11:18:48;9.90;65.80
13436;DHT22;6790;49.520;8.504;2023-04-03T11:21:21;9.80;60.60
13436;DHT22;6790;49.520;8.504;2023-04-03T11:23:53;9.90;57.70
13436;DHT22;6790;49.520;8.504;2023-04-03T11:26:26;10.30;57.30
13436;DHT22;6790;49.520;8.504;2023-04-03T11:29:01;10.90;64.60
13436;DHT22;6790;49.520;8.504;2023-04-03T11:37:00;10.60;59.20
13436;DHT22;6790;49.520;8.504;2023-04-03T11:39:35;10.40;59.30
13436;DHT22;6790;49.520;8.504;2023-04-03T11:47:54;10.70;66.00
13436;DHT22;6790;49.520;8.504;2023-04-03T12:00:49;9.20;60.70
13436;DHT22;6790;49.520;8.504;2023-04-03T12:14:04;9.50;69.80
13436;DHT22;6790;49.520;8.504;2023-04-03T12:16:50;10.00;70.20
13436;DHT22;6790;49.520;8.504;2023-04-03T12:27:25;10.20;64.20
13436;DHT22;6790;49.520;8.504;2023-04-03T12:32:43;9.70;60.80
13436;DHT22;6790;49.520;8.504;2023-04-03T12:41:18;9.20;59.90
13436;DHT22;6790;49.520;8.504;2023-04-03T12:46:23;9.90;59.20
13436;DHT22;6790;49.520;8.504;2023-04-03T12:48:57;10.90;60.40
13436;DHT22;6790;49.520;8.504;2023-04-03T12:51:39;11.10;55.90
13436;DHT22;6790;49.520;8.504;2023-04-03T12:54:30;10.40;56.20
13436;DHT22;6790;49.520;8.504;2023-04-03T12:57:19;9.60;61.50
13436;DHT22;6790;49.520;8.504;2023-04-03T12:59:46;9.80;58.80
13436;DHT22;6790;49.520;8.504;2023-04-03T13:02:32;10.00;61.60
13436;DHT22;6790;49.520;8.504;2023-04-03T13:05:09;10.30;63.50
13436;DHT22;6790;49.520;8.504;2023-04-03T13:07:41;10.40;60.00
13436;DHT22;6790;49.520;8.504;2023-04-03T13:13:09;10.00;63.20
13436;DHT22;6790;49.520;8.504;2023-04-03T13:15:47;9.80;64.60
13436;DHT22;6790;49.520;8.504;2023-04-03T13:18:34;9.70;66.30
13436;DHT22;6790;49.520;8.504;2023-04-03T13:21:15;9.40;62.20
13436;DHT22;6790;49.520;8.504;2023-04-03T13:23:45;9.30;66.40
13436;DHT22;6790;49.520;8.504;2023-04-03T13:26:17;9.30;66.30
13436;DHT22;6790;49.520;8.504;2023-04-03T13:28:45;9.60;63.10
13436;DHT22;6790;49.520;8.504;2023-04-03T13:31:22;9.80;60.80
13436;DHT22;6790;49.520;8.504;2023-04-03T13:36:30;9.10;58.60
13436;DHT22;6790;49.520;8.504;2023-04-03T13:39:23;9.00;59.40
13436;DHT22;6790;49.520;8.504;2023-04-03T13:41:53;9.20;63.60
13436;DHT22;6790;49.520;8.504;2023-04-03T13:46:53;10.70;57.90
13436;DHT22;6790;49.520;8.504;2023-04-03T13:49:32;10.50;54.50
13436;DHT22;6790;49.520;8.504;2023-04-03T13:52:01;9.90;59.90
13436;DHT22;6790;49.520;8.504;2023-04-03T13:54:52;9.20;58.90
13436;DHT22;6790;49.520;8.504;2023-04-03T13:57:21;9.00;62.10
13436;DHT22;6790;49.520;8.504;2023-04-03T13:59:47;8.90;59.70
13436;DHT22;6790;49.520;8.504;2023-04-03T14:02:28;9.50;57.80
13436;DHT22;6790;49.520;8.504;2023-04-03T14:05:00;10.00;57.20
13436;DHT22;6790;49.520;8.504;2023-04-03T14:07:29;10.00;53.30
13436;DHT22;6790;49.520;8.504;2023-04-03T14:09:56;10.30;53.70
13436;DHT22;6790;49.520;8.504;2023-04-03T14:12:32;10.70;55.00
13436;DHT22;6790;49.520;8.504;2023-04-03T14:15:03;11.50;53.40
13436;DHT22;6790;49.520;8.504;2023-04-03T14:17:30;11.40;49.30
13436;DHT22;6790;49.520;8.504;2023-04-03T14:19:59;10.50;49.90
13436;DHT22;6790;49.520;8.504;2023-04-03T14:22:29;9.90;53.30
13436;DHT22;6790;49.520;8.504;2023-04-03T14:24:57;10.20;51.20
13436;DHT22;6790;49.520;8.504;2023-04-03T14:27:29;10.70;51.20
13436;DHT22;6790;49.520;8.504;2023-04-03T14:30:00;10.50;46.20
13436;DHT22;6790;49.520;8.504;2023-04-03T14:32:28;10.30;47.20
13436;DHT22;6790;49.520;8.504;2023-04-03T14:34:54;10.70;47.80
13436;DHT22;6790;49.520;8.504;2023-04-03T14:37:29;10.60;43.30
13436;DHT22;6790;49.520;8.504;2023-04-03T14:39:57;10.50;48.00
13436;DHT22;6790;49.520;8.504;2023-04-03T14:42:32;10.70;44.20
13436;DHT22;6790;49.520;8.504;2023-04-03T14:45:02;11.00;44.30
13436;DHT22;6790;49.520;8.504;2023-04-03T14:47:31;11.00;45.20
13436;DHT22;6790;49.520;8.504;2023-04-03T14:49:58;10.90;44.10
13436;DHT22;6790;49.520;8.504;2023-04-03T14:52:30;11.30;44.30
13436;DHT22;6790;49.520;8.504;2023-04-03T14:54:58;10.70;44.90
13436;DHT22;6790;49.520;8.504;2023-04-03T14:57:25;10.40;45.60
13436;DHT22;6790;49.520;8.504;2023-04-03T14:59:52;10.40;47.50
13436;DHT22;6790;49.520;8.504;2023-04-03T15:02:33;10.80;46.70
13436;DHT22;6790;49.520;8.504;2023-04-03T15:05:02;10.30;45.40
13436;DHT22;6790;49.520;8.504;2023-04-03T15:07:41;10.10;43.30
13436;DHT22;6790;49.520;8.504;2023-04-03T15:12:40;10.50;44.20
13436;DHT22;6790;49.520;8.504;2023-04-03T15:15:07;10.60;40.90
13436;DHT22;6790;49.520;8.504;2023-04-03T15:17:33;10.80;40.60
13436;DHT22;6790;49.520;8.504;2023-04-03T15:20:00;10.60;44.00
13436;DHT22;6790;49.520;8.504;2023-04-03T15:22:26;10.70;41.80
13436;DHT22;6790;49.520;8.504;2023-04-03T15:24:53;10.30;38.90
13436;DHT22;6790;49.520;8.504;2023-04-03T15:27:19;10.50;38.80
13436;DHT22;6790;49.520;8.504;2023-04-03T15:29:45;10.00;39.60
13436;DHT22;6790;49.520;8.504;2023-04-03T15:32:11;10.40;40.00
13436;DHT22;6790;49.520;8.504;2023-04-03T15:34:38;12.10;36.90
13436;DHT22;6790;49.520;8.504;2023-04-03T15:37:05;13.00;34.80
13436;DHT22;6790;49.520;8.504;2023-04-03T15:39:31;14.70;30.90
13436;DHT22;6790;49.520;8.504;2023-04-03T15:41:56;15.10;30.70
13436;DHT22;6790;49.520;8.504;2023-04-03T15:44:31;13.00;32.20
13436;DHT22;6790;49.520;8.504;2023-04-03T15:46:59;11.10;37.60
13436;DHT22;6790;49.520;8.504;2023-04-03T15:49:26;10.20;40.00
13436;DHT22;6790;49.520;8.504;2023-04-03T15:51:52;10.30;41.80
13436;DHT22;6790;49.520;8.504;2023-04-03T15:54:18;10.40;42.60
13436;DHT22;6790;49.520;8.504;2023-04-03T15:56:44;10.80;42.10
13436;DHT22;6790;49.520;8.504;2023-04-03T15:59:10;10.40;42.00
13436;DHT22;6790;49.520;8.504;2023-04-03T16:01:37;9.90;43.40
13436;DHT22;6790;49.520;8.504;2023-04-03T16:04:03;9.70;48.10
13436;DHT22;6790;49.520;8.504;2023-04-03T16:06:29;9.60;48.10
13436;DHT22;6790;49.520;8.504;2023-04-03T16:08:56;10.00;46.10
13436;DHT22;6790;49.520;8.504;2023-04-03T16:11:24;10.90;45.00
13436;DHT22;6790;49.520;8.504;2023-04-03T16:13:51;11.50;43.90
13436;DHT22;6790;49.520;8.504;2023-04-03T16:16:17;11.20;40.30
13436;DHT22;6790;49.520;8.504;2023-04-03T16:18:42;12.80;38.40
13436;DHT22;6790;49.520;8.504;2023-04-03T16:21:09;14.10;32.60
13436;DHT22;6790;49.520;8.504;2023-04-03T16:23:34;14.50;29.90
13436;DHT22;6790;49.520;8.504;2023-04-03T16:26:00;14.70;30.20
13436;DHT22;6790;49.520;8.504;2023-04-03T16:28:26;13.90;31.50
13436;DHT22;6790;49.520;8.504;2023-04-03T16:30:52;14.90;31.20
13436;DHT22;6790;49.520;8.504;2023-04-03T16:33:18;13.60;31.50
13436;DHT22;6790;49.520;8.504;2023-04-03T16:35:46;12.90;34.20
13436;DHT22;6790;49.520;8.504;2023-04-03T16:38:13;14.10;31.40
13436;DHT22;6790;49.520;8.504;2023-04-03T16:40:40;16.40;27.30
13436;DHT22;6790;49.520;8.504;2023-04-03T16:43:06;16.30;25.70
13436;DHT22;6790;49.520;8.504;2023-04-03T16:45:32;12.10;30.70
13436;DHT22;6790;49.520;8.504;2023-04-03T16:47:58;11.60;36.50
13436;DHT22;6790;49.520;8.504;2023-04-03T16:50:23;11.70;35.00
13436;DHT22;6790;49.520;8.504;2023-04-03T16:52:49;11.10;36.80
13436;DHT22;6790;49.520;8.504;2023-04-03T16:55:15;9.40;38.60
13436;DHT22;6790;49.520;8.504;2023-04-03T16:57:41;9.20;40.40
13436;DHT22;6790;49.520;8.504;2023-04-03T17:00:07;8.80;41.50
13436;DHT22;6790;49.520;8.504;2023-04-03T17:02:33;8.70;44.30
13436;DHT22;6790;49.520;8.504;2023-04-03T17:04:59;8.60;45.90
13436;DHT22;6790;49.520;8.504;2023-04-03T17:07:25;8.30;47.80
13436;DHT22;6790;49.520;8.504;2023-04-03T17:09:51;8.00;46.70
13436;DHT22;6790;49.520;8.504;2023-04-03T17:12:19;8.00;47.90
13436;DHT22;6790;49.520;8.504;2023-04-03T17:14:45;7.80;49.40
13436;DHT22;6790;49.520;8.504;2023-04-03T17:17:15;7.80;48.10
13436;DHT22;6790;49.520;8.504;2023-04-03T17:19:42;7.80;47.90
13436;DHT22;6790;49.520;8.504;2023-04-03T17:22:08;7.60;48.30
13436;DHT22;6790;49.520;8.504;2023-04-03T17:24:35;7.60;47.40
13436;DHT22;6790;49.520;8.504;2023-04-03T17:27:02;7.50;48.70
13436;DHT22;6790;49.520;8.504;2023-04-03T17:29:28;7.40;47.90
13436;DHT22;6790;49.520;8.504;2023-04-03T17:31:54;7.30;51.60
13436;DHT22;6790;49.520;8.504;2023-04-03T17:34:19;7.20;50.70
13436;DHT22;6790;49.520;8.504;2023-04-03T17:36:45;7.10;53.80
13436;DHT22;6790;49.520;8.504;2023-04-03T17:39:11;7.10;52.00
13436;DHT22;6790;49.520;8.504;2023-04-03T17:41:37;6.90;56.40
13436;DHT22;6790;49.520;8.504;2023-04-03T17:44:03;6.70;55.50
13436;DHT22;6790;49.520;8.504;2023-04-03T17:46:29;6.70;56.40
13436;DHT22;6790;49.520;8.504;2023-04-03T17:48:56;6.50;57.00
13436;DHT22;6790;49.520;8.504;2023-04-03T17:51:25;6.50;57.60
13436;DHT22;6790;49.520;8.504;2023-04-03T17:53:51;6.50;56.40
13436;DHT22;6790;49.520;8.504;2023-04-03T17:56:22;6.50;57.40
13436;DHT22;6790;49.520;8.504;2023-04-03T17:58:50;6.60;57.10
13436;DHT22;6790;49.520;8.504;2023-04-03T18:01:21;6.50;57.40
13436;DHT22;6790;49.520;8.504;2023-04-03T18:03:51;6.40;59.70
13436;DHT22;6790;49.520;8.504;2023-04-03T18:06:22;6.20;59.90
13436;DHT22;6790;49.520;8.504;2023-04-03T18:09:09;6.00;62.20
13436;DHT22;6790;49.520;8.504;2023-04-03T18:11:36;6.00;63.60